sensor_id;sensor_type;location;lat;lon;timestamp;temperature;humidity
16521;DHT22;8373;48.110;11.522;2023-02-19T00:01:31;12.50;63.50
16521;DHT22;8373;48.110;11.522;2023-02-19T00:04:00;12.40;63.50
16521;DHT22;8373;48.110;11.522;2023-02-19T00:06:30;12.40;63.70
16521;DHT22;8373;48.110;11.522;2023-02-19T00:08:58;12.50;63.90
16521;DHT22;8373;48.110;11.522;2023-02-19T00:11:27;12.40;64.00
16521;DHT22;8373;48.110;11.522;2023-02-19T00:13:55;12.30;64.20
16521;DHT22;8373;48.110;11.522;2023-02-19T00:16:24;12.30;64.30
16521;DHT22;8373;48.110;11.522;2023-02-19T00:18:52;12.40;64.50
16521;DHT22;8373;48.110;11.522;2023-02-19T00:21:20;12.40;64.30
16521;DHT22;8373;48.110;11.522;2023-02-19T00:23:49;12.40;64.40
16521;DHT22;8373;48.110;11.522;2023-02-19T00:26:17;12.50;64.30
16521;DHT22;8373;48.110;11.522;2023-02-19T00:28:44;12.50;64.00
16521;DHT22;8373;48.110;11.522;2023-02-19T00:31:16;12.40;64.00
16521;DHT22;8373;48.110;11.522;2023-02-19T00:33:44;12.40;64.10
16521;DHT22;8373;48.110;11.522;2023-02-19T00:36:11;12.30;64.10
16521;DHT22;8373;48.110;11.522;2023-02-19T00:38:40;12.40;64.40
16521;DHT22;8373;48.110;11.522;2023-02-19T00:41:09;12.30;64.20
16521;DHT22;8373;48.110;11.522;2023-02-19T00:43:46;12.40;64.40
16521;DHT22;8373;48.110;11.522;2023-02-19T00:46:14;12.40;64.50
16521;DHT22;8373;48.110;11.522;2023-02-19T00:48:41;12.40;64.50
16521;DHT22;8373;48.110;11.522;2023-02-19T00:51:08;12.40;64.60
16521;DHT22;8373;48.110;11.522;2023-02-19T00:53:36;12.30;64.70
16521;DHT22;8373;48.110;11.522;2023-02-19T00:56:03;12.40;64.80
16521;DHT22;8373;48.110;11.522;2023-02-19T00:58:32;12.30;64.80
16521;DHT22;8373;48.110;11.522;2023-02-19T01:00:58;12.20;64.70
16521;DHT22;8373;48.110;11.522;2023-02-19T01:03:26;12.20;65.10
16521;DHT22;8373;48.110;11.522;2023-02-19T01:05:53;12.10;65.10
16521;DHT22;8373;48.110;11.522;2023-02-19T01:08:20;12.10;65.40
16521;DHT22;8373;48.110;11.522;2023-02-19T01:10:47;12.00;65.40
16521;DHT22;8373;48.110;11.522;2023-02-19T01:13:14;12.10;65.60
16521;DHT22;8373;48.110;11.522;2023-02-19T01:15:43;12.10;65.70
16521;DHT22;8373;48.110;11.522;2023-02-19T01:18:10;12.10;65.70
16521;DHT22;8373;48.110;11.522;2023-02-19T01:20:38;12.10;65.70
16521;DHT22;8373;48.110;11.522;2023-02-19T01:23:05;12.10;65.80
16521;DHT22;8373;48.110;11.522;2023-02-19T01:25:32;12.10;65.80
16521;DHT22;8373;48.110;11.522;2023-02-19T01:27:59;12.10;65.90
16521;DHT22;8373;48.110;11.522;2023-02-19T01:30:26;12.10;66.60
16521;DHT22;8373;48.110;11.522;2023-02-19T01:32:54;12.10;66.00
16521;DHT22;8373;48.110;11.522;2023-02-19T01:35:21;12.20;65.90
16521;DHT22;8373;48.110;11.522;2023-02-19T01:37:48;12.20;65.80
16521;DHT22;8373;48.110;11.522;2023-02-19T01:40:16;12.20;65.70
16521;DHT22;8373;48.110;11.522;2023-02-19T01:42:43;12.10;65.60
16521;DHT22;8373;48.110;11.522;2023-02-19T01:45:20;12.10;66.00
16521;DHT22;8373;48.110;11.522;2023-02-19T01:47:50;12.20;66.20
16521;DHT22;8373;48.110;11.522;2023-02-19T01:50:19;12.20;66.30
16521;DHT22;8373;48.110;11.522;2023-02-19T01:52:46;12.30;66.40
16521;DHT22;8373;48.110;11.522;2023-02-19T01:55:13;12.30;66.10
16521;DHT22;8373;48.110;11.522;2023-02-19T01:57:43;12.30;65.90
16521;DHT22;8373;48.110;11.522;2023-02-19T02:00:14;12.20;65.80
16521;DHT22;8373;48.110;11.522;2023-02-19T02:02:45;12.20;66.00
16521;DHT22;8373;48.110;11.522;2023-02-19T02:05:22;12.10;65.90
16521;DHT22;8373;48.110;11.522;2023-02-19T02:07:51;12.10;66.00
16521;DHT22;8373;48.110;11.522;2023-02-19T02:10:41;12.00;66.60
16521;DHT22;8373;48.110;11.522;2023-02-19T02:13:08;12.00;66.90
16521;DHT22;8373;48.110;11.522;2023-02-19T02:15:39;12.00;67.20
16521;DHT22;8373;48.110;11.522;2023-02-19T02:18:18;12.10;67.30
16521;DHT22;8373;48.110;11.522;2023-02-19T02:21:02;12.10;67.50
16521;DHT22;8373;48.110;11.522;2023-02-19T02:23:39;12.00;68.00
16521;DHT22;8373;48.110;11.522;2023-02-19T02:26:32;12.10;68.50
16521;DHT22;8373;48.110;11.522;2023-02-19T02:29:17;12.10;68.80
16521;DHT22;8373;48.110;11.522;2023-02-19T02:31:50;12.00;69.80
16521;DHT22;8373;48.110;11.522;2023-02-19T02:34:23;11.90;70.70
16521;DHT22;8373;48.110;11.522;2023-02-19T02:36:54;11.90;71.20
16521;DHT22;8373;48.110;11.522;2023-02-19T02:39:24;11.90;71.80
16521;DHT22;8373;48.110;11.522;2023-02-19T02:41:55;11.80;72.30
16521;DHT22;8373;48.110;11.522;2023-02-19T02:44:38;11.80;72.90
16521;DHT22;8373;48.110;11.522;2023-02-19T02:47:07;11.70;73.00
16521;DHT22;8373;48.110;11.522;2023-02-19T02:49:56;11.70;73.50
16521;DHT22;8373;48.110;11.522;2023-02-19T02:52:31;11.60;73.80
16521;DHT22;8373;48.110;11.522;2023-02-19T02:55:17;11.50;74.20
16521;DHT22;8373;48.110;11.522;2023-02-19T02:57:44;11.50;75.10
16521;DHT22;8373;48.110;11.522;2023-02-19T03:00:12;11.40;75.50
16521;DHT22;8373;48.110;11.522;2023-02-19T03:02:42;11.40;76.00
16521;DHT22;8373;48.110;11.522;2023-02-19T03:05:12;11.40;76.90
16521;DHT22;8373;48.110;11.522;2023-02-19T03:08:04;11.40;77.20
16521;DHT22;8373;48.110;11.522;2023-02-19T03:10:38;11.30;77.40
16521;DHT22;8373;48.110;11.522;2023-02-19T03:18:40;10.90;79.50
16521;DHT22;8373;48.110;11.522;2023-02-19T03:21:27;11.00;80.70
16521;DHT22;8373;48.110;11.522;2023-02-19T03:23:55;11.00;81.40
16521;DHT22;8373;48.110;11.522;2023-02-19T03:26:41;10.80;82.00
16521;DHT22;8373;48.110;11.522;2023-02-19T03:29:10;10.70;83.00
16521;DHT22;8373;48.110;11.522;2023-02-19T03:31:53;10.70;84.20
16521;DHT22;8373;48.110;11.522;2023-02-19T03:34:26;10.60;84.70
16521;DHT22;8373;48.110;11.522;2023-02-19T03:36:59;10.50;85.40
16521;DHT22;8373;48.110;11.522;2023-02-19T03:39:27;10.40;86.20
16521;DHT22;8373;48.110;11.522;2023-02-19T03:41:59;10.40;87.10
16521;DHT22;8373;48.110;11.522;2023-02-19T03:44:37;10.30;87.60
16521;DHT22;8373;48.110;11.522;2023-02-19T03:47:13;10.20;88.40
16521;DHT22;8373;48.110;11.522;2023-02-19T03:49:45;10.30;89.40
16521;DHT22;8373;48.110;11.522;2023-02-19T03:52:17;10.20;89.60
16521;DHT22;8373;48.110;11.522;2023-02-19T03:54:51;10.10;90.10
16521;DHT22;8373;48.110;11.522;2023-02-19T03:57:22;10.20;90.20
16521;DHT22;8373;48.110;11.522;2023-02-19T03:59:53;10.20;90.40
16521;DHT22;8373;48.110;11.522;2023-02-19T04:02:28;10.10;90.50
16521;DHT22;8373;48.110;11.522;2023-02-19T04:05:03;10.10;90.60
16521;DHT22;8373;48.110;11.522;2023-02-19T04:07:33;10.10;90.80
16521;DHT22;8373;48.110;11.522;2023-02-19T04:10:02;10.10;90.80
16521;DHT22;8373;48.110;11.522;2023-02-19T04:12:29;10.10;90.80
16521;DHT22;8373;48.110;11.522;2023-02-19T04:15:00;10.00;90.80
16521;DHT22;8373;48.110;11.522;2023-02-19T04:17:33;9.90;91.40
16521;DHT22;8373;48.110;11.522;2023-02-19T04:20:06;9.90;91.40
16521;DHT22;8373;48.110;11.522;2023-02-19T04:22:35;9.80;91.50
16521;DHT22;8373;48.110;11.522;2023-02-19T04:25:03;9.80;91.70
16521;DHT22;8373;48.110;11.522;2023-02-19T04:27:30;9.80;91.70
16521;DHT22;8373;48.110;11.522;2023-02-19T04:29:57;9.70;91.70
16521;DHT22;8373;48.110;11.522;2023-02-19T04:32:24;9.70;91.90
16521;DHT22;8373;48.110;11.522;2023-02-19T04:34:51;9.70;91.90
16521;DHT22;8373;48.110;11.522;2023-02-19T04:37:19;9.70;92.00
16521;DHT22;8373;48.110;11.522;2023-02-19T04:39:46;9.70;92.00
16521;DHT22;8373;48.110;11.522;2023-02-19T04:42:13;9.70;92.00
16521;DHT22;8373;48.110;11.522;2023-02-19T04:44:40;9.70;92.00
16521;DHT22;8373;48.110;11.522;2023-02-19T04:47:07;9.60;91.80
16521;DHT22;8373;48.110;11.522;2023-02-19T04:49:34;9.60;91.80
16521;DHT22;8373;48.110;11.522;2023-02-19T04:52:01;9.50;91.90
16521;DHT22;8373;48.110;11.522;2023-02-19T04:54:30;9.50;92.10
16521;DHT22;8373;48.110;11.522;2023-02-19T04:56:56;9.60;92.20
16521;DHT22;8373;48.110;11.522;2023-02-19T04:59:23;9.70;92.10
16521;DHT22;8373;48.110;11.522;2023-02-19T05:01:50;9.70;92.00
16521;DHT22;8373;48.110;11.522;2023-02-19T05:04:17;9.60;91.80
16521;DHT22;8373;48.110;11.522;2023-02-19T05:06:44;9.60;91.90
16521;DHT22;8373;48.110;11.522;2023-02-19T05:09:11;9.50;91.90
16521;DHT22;8373;48.110;11.522;2023-02-19T05:11:39;9.50;92.00
16521;DHT22;8373;48.110;11.522;2023-02-19T05:14:06;9.60;92.00
16521;DHT22;8373;48.110;11.522;2023-02-19T05:16:34;9.60;91.90
16521;DHT22;8373;48.110;11.522;2023-02-19T05:19:00;9.60;92.00
16521;DHT22;8373;48.110;11.522;2023-02-19T05:21:27;9.60;91.90
16521;DHT22;8373;48.110;11.522;2023-02-19T05:23:54;9.70;91.90
16521;DHT22;8373;48.110;11.522;2023-02-19T05:26:22;9.80;91.70
16521;DHT22;8373;48.110;11.522;2023-02-19T05:28:52;9.80;91.50
16521;DHT22;8373;48.110;11.522;2023-02-19T05:31:19;9.70;91.20
16521;DHT22;8373;48.110;11.522;2023-02-19T05:33:46;9.80;91.30
16521;DHT22;8373;48.110;11.522;2023-02-19T05:36:17;9.70;91.20
16521;DHT22;8373;48.110;11.522;2023-02-19T05:38:44;9.80;91.30
16521;DHT22;8373;48.110;11.522;2023-02-19T05:41:13;9.80;91.30
16521;DHT22;8373;48.110;11.522;2023-02-19T05:43:41;9.80;91.20
16521;DHT22;8373;48.110;11.522;2023-02-19T05:46:10;9.80;91.00
16521;DHT22;8373;48.110;11.522;2023-02-19T05:48:37;9.80;90.80
16521;DHT22;8373;48.110;11.522;2023-02-19T05:51:06;9.80;90.80
16521;DHT22;8373;48.110;11.522;2023-02-19T05:53:33;9.80;90.90
16521;DHT22;8373;48.110;11.522;2023-02-19T05:56:01;9.80;90.70
16521;DHT22;8373;48.110;11.522;2023-02-19T05:58:28;9.80;90.80
16521;DHT22;8373;48.110;11.522;2023-02-19T06:00:55;9.80;90.60
16521;DHT22;8373;48.110;11.522;2023-02-19T06:03:23;9.80;90.60
16521;DHT22;8373;48.110;11.522;2023-02-19T06:05:50;9.90;90.60
16521;DHT22;8373;48.110;11.522;2023-02-19T06:08:17;9.90;90.40
16521;DHT22;8373;48.110;11.522;2023-02-19T06:10:44;10.00;89.50
16521;DHT22;8373;48.110;11.522;2023-02-19T06:13:11;9.90;90.10
16521;DHT22;8373;48.110;11.522;2023-02-19T06:15:38;10.00;89.40
16521;DHT22;8373;48.110;11.522;2023-02-19T06:18:05;9.90;90.00
16521;DHT22;8373;48.110;11.522;2023-02-19T06:20:33;9.90;90.40
16521;DHT22;8373;48.110;11.522;2023-02-19T06:23:00;9.80;90.10
16521;DHT22;8373;48.110;11.522;2023-02-19T06:25:27;9.80;90.10
16521;DHT22;8373;48.110;11.522;2023-02-19T06:27:54;9.80;90.20
16521;DHT22;8373;48.110;11.522;2023-02-19T06:30:21;9.80;90.10
16521;DHT22;8373;48.110;11.522;2023-02-19T06:32:50;9.80;90.30
16521;DHT22;8373;48.110;11.522;2023-02-19T06:35:17;9.90;90.30
16521;DHT22;8373;48.110;11.522;2023-02-19T06:37:47;9.90;90.30
16521;DHT22;8373;48.110;11.522;2023-02-19T06:40:14;9.90;90.20
16521;DHT22;8373;48.110;11.522;2023-02-19T06:42:41;9.90;90.10
16521;DHT22;8373;48.110;11.522;2023-02-19T06:45:08;9.90;90.00
16521;DHT22;8373;48.110;11.522;2023-02-19T06:47:35;9.90;90.10
16521;DHT22;8373;48.110;11.522;2023-02-19T06:50:02;9.90;90.00
16521;DHT22;8373;48.110;11.522;2023-02-19T06:52:29;10.00;89.00
16521;DHT22;8373;48.110;11.522;2023-02-19T06:54:58;10.10;89.00
16521;DHT22;8373;48.110;11.522;2023-02-19T06:57:25;10.10;88.60
16521;DHT22;8373;48.110;11.522;2023-02-19T06:59:52;10.10;88.70
16521;DHT22;8373;48.110;11.522;2023-02-19T07:02:19;10.10;88.30
16521;DHT22;8373;48.110;11.522;2023-02-19T07:04:46;10.10;88.30
16521;DHT22;8373;48.110;11.522;2023-02-19T07:07:13;10.10;88.30
16521;DHT22;8373;48.110;11.522;2023-02-19T07:09:40;10.20;88.40
16521;DHT22;8373;48.110;11.522;2023-02-19T07:12:08;10.30;88.10
16521;DHT22;8373;48.110;11.522;2023-02-19T07:14:35;10.30;88.20
16521;DHT22;8373;48.110;11.522;2023-02-19T07:17:02;10.40;87.80
16521;DHT22;8373;48.110;11.522;2023-02-19T07:19:29;10.40;87.60
16521;DHT22;8373;48.110;11.522;2023-02-19T07:21:56;10.40;87.70
16521;DHT22;8373;48.110;11.522;2023-02-19T07:24:23;10.40;87.90
16521;DHT22;8373;48.110;11.522;2023-02-19T07:26:50;10.40;88.00
16521;DHT22;8373;48.110;11.522;2023-02-19T07:29:18;10.40;88.80
16521;DHT22;8373;48.110;11.522;2023-02-19T07:31:45;10.50;89.00
16521;DHT22;8373;48.110;11.522;2023-02-19T07:34:12;10.40;88.80
16521;DHT22;8373;48.110;11.522;2023-02-19T07:36:39;10.40;89.10
16521;DHT22;8373;48.110;11.522;2023-02-19T07:39:06;10.30;89.10
16521;DHT22;8373;48.110;11.522;2023-02-19T07:41:33;10.40;89.50
16521;DHT22;8373;48.110;11.522;2023-02-19T07:44:00;10.40;89.30
16521;DHT22;8373;48.110;11.522;2023-02-19T07:46:28;10.40;89.60
16521;DHT22;8373;48.110;11.522;2023-02-19T07:48:55;10.50;89.30
16521;DHT22;8373;48.110;11.522;2023-02-19T07:51:22;10.40;89.60
16521;DHT22;8373;48.110;11.522;2023-02-19T07:53:49;10.50;89.80
16521;DHT22;8373;48.110;11.522;2023-02-19T07:56:17;10.50;89.20
16521;DHT22;8373;48.110;11.522;2023-02-19T07:58:44;10.50;89.50
16521;DHT22;8373;48.110;11.522;2023-02-19T08:01:14;10.40;89.70
16521;DHT22;8373;48.110;11.522;2023-02-19T08:03:43;10.40;89.90
16521;DHT22;8373;48.110;11.522;2023-02-19T08:06:09;10.40;89.90
16521;DHT22;8373;48.110;11.522;2023-02-19T08:08:37;10.40;89.80
16521;DHT22;8373;48.110;11.522;2023-02-19T08:11:05;10.50;89.60
16521;DHT22;8373;48.110;11.522;2023-02-19T08:13:50;10.40;89.40
16521;DHT22;8373;48.110;11.522;2023-02-19T08:16:18;10.40;89.70
16521;DHT22;8373;48.110;11.522;2023-02-19T08:18:47;10.40;90.00
16521;DHT22;8373;48.110;11.522;2023-02-19T08:21:14;10.50;90.00
16521;DHT22;8373;48.110;11.522;2023-02-19T08:23:43;10.50;90.00
16521;DHT22;8373;48.110;11.522;2023-02-19T08:26:11;10.50;89.70
16521;DHT22;8373;48.110;11.522;2023-02-19T08:28:38;10.50;89.70
16521;DHT22;8373;48.110;11.522;2023-02-19T08:31:07;10.60;90.00
16521;DHT22;8373;48.110;11.522;2023-02-19T08:33:34;10.50;90.10
16521;DHT22;8373;48.110;11.522;2023-02-19T08:36:04;10.60;90.50
16521;DHT22;8373;48.110;11.522;2023-02-19T08:38:33;10.70;90.10
16521;DHT22;8373;48.110;11.522;2023-02-19T08:41:03;10.80;89.70
16521;DHT22;8373;48.110;11.522;2023-02-19T08:43:30;10.70;89.30
16521;DHT22;8373;48.110;11.522;2023-02-19T08:45:57;10.70;89.20
16521;DHT22;8373;48.110;11.522;2023-02-19T08:48:24;10.70;89.20
16521;DHT22;8373;48.110;11.522;2023-02-19T08:50:53;10.80;89.60
16521;DHT22;8373;48.110;11.522;2023-02-19T08:53:22;11.00;89.20
16521;DHT22;8373;48.110;11.522;2023-02-19T08:55:50;10.90;88.30
16521;DHT22;8373;48.110;11.522;2023-02-19T08:58:17;11.00;88.20
16521;DHT22;8373;48.110;11.522;2023-02-19T09:00:44;11.00;87.90
16521;DHT22;8373;48.110;11.522;2023-02-19T09:03:11;11.10;88.10
16521;DHT22;8373;48.110;11.522;2023-02-19T09:05:38;11.10;87.70
16521;DHT22;8373;48.110;11.522;2023-02-19T09:08:05;11.20;87.80
16521;DHT22;8373;48.110;11.522;2023-02-19T09:10:33;11.20;87.40
16521;DHT22;8373;48.110;11.522;2023-02-19T09:13:00;11.30;87.50
16521;DHT22;8373;48.110;11.522;2023-02-19T09:15:28;11.20;87.10
16521;DHT22;8373;48.110;11.522;2023-02-19T09:17:55;11.30;88.20
16521;DHT22;8373;48.110;11.522;2023-02-19T09:20:22;11.20;87.00
16521;DHT22;8373;48.110;11.522;2023-02-19T09:22:49;11.20;86.40
16521;DHT22;8373;48.110;11.522;2023-02-19T09:25:16;11.20;86.60
16521;DHT22;8373;48.110;11.522;2023-02-19T09:27:44;11.20;86.50
16521;DHT22;8373;48.110;11.522;2023-02-19T09:30:11;11.20;86.40
16521;DHT22;8373;48.110;11.522;2023-02-19T09:32:38;11.20;85.80
16521;DHT22;8373;48.110;11.522;2023-02-19T09:35:06;11.20;84.50
16521;DHT22;8373;48.110;11.522;2023-02-19T09:37:33;11.80;84.60
16521;DHT22;8373;48.110;11.522;2023-02-19T09:40:00;12.40;83.00
16521;DHT22;8373;48.110;11.522;2023-02-19T09:42:28;13.40;81.10
16521;DHT22;8373;48.110;11.522;2023-02-19T09:44:59;14.60;75.70
16521;DHT22;8373;48.110;11.522;2023-02-19T09:47:28;14.50;70.00
16521;DHT22;8373;48.110;11.522;2023-02-19T09:49:59;13.90;69.40
16521;DHT22;8373;48.110;11.522;2023-02-19T09:52:32;13.70;71.50
16521;DHT22;8373;48.110;11.522;2023-02-19T09:55:03;13.70;72.80
16521;DHT22;8373;48.110;11.522;2023-02-19T09:57:32;13.50;70.20
16521;DHT22;8373;48.110;11.522;2023-02-19T10:00:05;13.00;69.30
16521;DHT22;8373;48.110;11.522;2023-02-19T10:02:33;12.60;70.40
16521;DHT22;8373;48.110;11.522;2023-02-19T10:05:00;12.20;70.80
16521;DHT22;8373;48.110;11.522;2023-02-19T10:07:46;11.90;71.60
16521;DHT22;8373;48.110;11.522;2023-02-19T10:10:22;11.70;73.10
16521;DHT22;8373;48.110;11.522;2023-02-19T10:12:52;11.50;74.30
16521;DHT22;8373;48.110;11.522;2023-02-19T10:15:28;11.60;75.00
16521;DHT22;8373;48.110;11.522;2023-02-19T10:17:56;11.90;74.70
16521;DHT22;8373;48.110;11.522;2023-02-19T10:20:24;12.30;72.00
16521;DHT22;8373;48.110;11.522;2023-02-19T10:22:58;12.60;70.40
16521;DHT22;8373;48.110;11.522;2023-02-19T10:25:26;12.90;67.90
16521;DHT22;8373;48.110;11.522;2023-02-19T10:27:53;12.90;65.80
16521;DHT22;8373;48.110;11.522;2023-02-19T10:30:24;14.20;66.80
16521;DHT22;8373;48.110;11.522;2023-02-19T10:32:59;16.10;59.20
16521;DHT22;8373;48.110;11.522;2023-02-19T10:35:27;17.40;53.30
16521;DHT22;8373;48.110;11.522;2023-02-19T10:37:55;17.70;51.20
16521;DHT22;8373;48.110;11.522;2023-02-19T10:40:24;19.20;51.00
16521;DHT22;8373;48.110;11.522;2023-02-19T10:42:54;22.10;47.20
16521;DHT22;8373;48.110;11.522;2023-02-19T10:45:28;25.00;40.80
16521;DHT22;8373;48.110;11.522;2023-02-19T10:47:57;25.70;35.40
16521;DHT22;8373;48.110;11.522;2023-02-19T10:50:29;26.50;33.50
16521;DHT22;8373;48.110;11.522;2023-02-19T10:52:57;27.60;31.70
16521;DHT22;8373;48.110;11.522;2023-02-19T10:55:29;28.60;29.60
16521;DHT22;8373;48.110;11.522;2023-02-19T10:57:56;29.60;27.70
16521;DHT22;8373;48.110;11.522;2023-02-19T11:00:24;29.80;26.70
16521;DHT22;8373;48.110;11.522;2023-02-19T11:05:35;26.00;28.00
16521;DHT22;8373;48.110;11.522;2023-02-19T11:08:03;23.50;29.90
16521;DHT22;8373;48.110;11.522;2023-02-19T11:10:33;21.70;32.20
16521;DHT22;8373;48.110;11.522;2023-02-19T11:13:02;20.40;35.10
16521;DHT22;8373;48.110;11.522;2023-02-19T11:15:31;18.90;37.10
16521;DHT22;8373;48.110;11.522;2023-02-19T11:18:03;17.80;39.90
16521;DHT22;8373;48.110;11.522;2023-02-19T11:20:30;16.50;42.10
16521;DHT22;8373;48.110;11.522;2023-02-19T11:22:57;15.80;44.40
16521;DHT22;8373;48.110;11.522;2023-02-19T11:25:26;15.10;46.20
16521;DHT22;8373;48.110;11.522;2023-02-19T11:27:54;14.90;47.70
16521;DHT22;8373;48.110;11.522;2023-02-19T11:32:54;14.70;49.20
16521;DHT22;8373;48.110;11.522;2023-02-19T11:35:22;15.00;49.50
16521;DHT22;8373;48.110;11.522;2023-02-19T11:37:54;15.70;49.80
16521;DHT22;8373;48.110;11.522;2023-02-19T11:40:33;16.80;47.90
16521;DHT22;8373;48.110;11.522;2023-02-19T11:43:09;17.90;45.90
16521;DHT22;8373;48.110;11.522;2023-02-19T11:45:44;18.70;45.50
16521;DHT22;8373;48.110;11.522;2023-02-19T11:48:33;19.20;42.70
16521;DHT22;8373;48.110;11.522;2023-02-19T11:51:29;19.30;42.90
16521;DHT22;8373;48.110;11.522;2023-02-19T11:54:07;18.30;43.20
16521;DHT22;8373;48.110;11.522;2023-02-19T11:56:40;17.20;45.60
16521;DHT22;8373;48.110;11.522;2023-02-19T11:59:15;16.30;47.40
16521;DHT22;8373;48.110;11.522;2023-02-19T12:02:04;15.70;48.90
16521;DHT22;8373;48.110;11.522;2023-02-19T12:07:58;14.70;50.10
16521;DHT22;8373;48.110;11.522;2023-02-19T12:10:32;14.10;50.00
16521;DHT22;8373;48.110;11.522;2023-02-19T12:13:07;13.90;51.20
16521;DHT22;8373;48.110;11.522;2023-02-19T12:15:48;13.80;51.60
16521;DHT22;8373;48.110;11.522;2023-02-19T12:18:52;13.80;51.70
16521;DHT22;8373;48.110;11.522;2023-02-19T12:21:43;14.10;51.10
16521;DHT22;8373;48.110;11.522;2023-02-19T12:24:34;14.20;50.60
16521;DHT22;8373;48.110;11.522;2023-02-19T12:27:15;14.00;50.50
16521;DHT22;8373;48.110;11.522;2023-02-19T12:32:55;14.10;50.40
16521;DHT22;8373;48.110;11.522;2023-02-19T12:35:42;13.70;50.70
16521;DHT22;8373;48.110;11.522;2023-02-19T12:38:20;13.60;56.70
16521;DHT22;8373;48.110;11.522;2023-02-19T12:41:03;13.90;60.60
16521;DHT22;8373;48.110;11.522;2023-02-19T12:43:36;14.20;59.60
16521;DHT22;8373;48.110;11.522;2023-02-19T12:46:11;14.60;59.70
16521;DHT22;8373;48.110;11.522;2023-02-19T12:48:43;14.70;56.70
16521;DHT22;8373;48.110;11.522;2023-02-19T12:51:24;14.80;58.20
16521;DHT22;8373;48.110;11.522;2023-02-19T12:53:57;14.70;56.30
16521;DHT22;8373;48.110;11.522;2023-02-19T12:56:29;14.50;57.00
16521;DHT22;8373;48.110;11.522;2023-02-19T12:59:00;14.30;57.70
16521;DHT22;8373;48.110;11.522;2023-02-19T13:01:32;14.30;57.50
16521;DHT22;8373;48.110;11.522;2023-02-19T13:04:13;14.20;57.10
16521;DHT22;8373;48.110;11.522;2023-02-19T13:06:46;14.20;56.80
16521;DHT22;8373;48.110;11.522;2023-02-19T13:09:22;14.10;54.60
16521;DHT22;8373;48.110;11.522;2023-02-19T13:11:55;14.10;53.10
16521;DHT22;8373;48.110;11.522;2023-02-19T13:14:29;13.90;52.00
16521;DHT22;8373;48.110;11.522;2023-02-19T13:17:03;13.50;51.90
16521;DHT22;8373;48.110;11.522;2023-02-19T13:19:33;13.30;52.40
16521;DHT22;8373;48.110;11.522;2023-02-19T13:22:07;13.30;53.20
16521;DHT22;8373;48.110;11.522;2023-02-19T13:24:57;13.20;53.40
16521;DHT22;8373;48.110;11.522;2023-02-19T13:27:48;13.20;53.70
16521;DHT22;8373;48.110;11.522;2023-02-19T13:30:34;13.20;53.70
16521;DHT22;8373;48.110;11.522;2023-02-19T13:33:18;13.30;53.50
16521;DHT22;8373;48.110;11.522;2023-02-19T13:38:47;12.80;53.20
16521;DHT22;8373;48.110;11.522;2023-02-19T13:41:25;12.70;53.70
16521;DHT22;8373;48.110;11.522;2023-02-19T13:43:58;12.50;53.40
16521;DHT22;8373;48.110;11.522;2023-02-19T13:46:33;12.50;53.80
16521;DHT22;8373;48.110;11.522;2023-02-19T13:52:32;12.30;54.80
16521;DHT22;8373;48.110;11.522;2023-02-19T13:58:53;12.00;57.00
16521;DHT22;8373;48.110;11.522;2023-02-19T14:04:42;11.60;57.70
16521;DHT22;8373;48.110;11.522;2023-02-19T14:10:10;11.40;59.10
16521;DHT22;8373;48.110;11.522;2023-02-19T14:12:37;11.30;59.10
16521;DHT22;8373;48.110;11.522;2023-02-19T14:17:50;11.30;59.90
16521;DHT22;8373;48.110;11.522;2023-02-19T14:23:12;11.30;58.40
16521;DHT22;8373;48.110;11.522;2023-02-19T14:25:53;11.20;58.90
16521;DHT22;8373;48.110;11.522;2023-02-19T14:31:09;11.10;59.30
16521;DHT22;8373;48.110;11.522;2023-02-19T14:33:38;11.10;59.60
16521;DHT22;8373;48.110;11.522;2023-02-19T14:36:12;11.30;59.70
16521;DHT22;8373;48.110;11.522;2023-02-19T14:38:43;11.40;59.60
16521;DHT22;8373;48.110;11.522;2023-02-19T14:41:14;11.30;59.90
16521;DHT22;8373;48.110;11.522;2023-02-19T14:43:42;11.10;60.10
16521;DHT22;8373;48.110;11.522;2023-02-19T14:46:16;11.10;60.70
16521;DHT22;8373;48.110;11.522;2023-02-19T14:48:48;11.10;60.70
16521;DHT22;8373;48.110;11.522;2023-02-19T14:51:23;11.20;61.40
16521;DHT22;8373;48.110;11.522;2023-02-19T14:53:52;11.20;60.40
16521;DHT22;8373;48.110;11.522;2023-02-19T14:56:22;11.20;59.80
16521;DHT22;8373;48.110;11.522;2023-02-19T14:59:21;11.20;59.70
16521;DHT22;8373;48.110;11.522;2023-02-19T15:01:56;11.10;59.00
16521;DHT22;8373;48.110;11.522;2023-02-19T15:04:26;11.20;59.50
16521;DHT22;8373;48.110;11.522;2023-02-19T15:06:54;11.20;59.30
16521;DHT22;8373;48.110;11.522;2023-02-19T15:09:27;11.20;59.30
16521;DHT22;8373;48.110;11.522;2023-02-19T15:11:55;11.20;59.30
16521;DHT22;8373;48.110;11.522;2023-02-19T15:14:23;11.20;59.20
16521;DHT22;8373;48.110;11.522;2023-02-19T15:16:56;11.20;58.90
16521;DHT22;8373;48.110;11.522;2023-02-19T15:19:26;11.10;58.90
16521;DHT22;8373;48.110;11.522;2023-02-19T15:21:53;11.10;58.90
16521;DHT22;8373;48.110;11.522;2023-02-19T15:24:21;11.10;58.90
16521;DHT22;8373;48.110;11.522;2023-02-19T15:26:49;11.10;59.00
16521;DHT22;8373;48.110;11.522;2023-02-19T15:29:20;11.20;58.70
16521;DHT22;8373;48.110;11.522;2023-02-19T15:31:49;11.20;58.50
16521;DHT22;8373;48.110;11.522;2023-02-19T15:34:18;11.20;58.20
16521;DHT22;8373;48.110;11.522;2023-02-19T15:36:48;11.30;58.50
16521;DHT22;8373;48.110;11.522;2023-02-19T15:39:19;11.40;58.10
16521;DHT22;8373;48.110;11.522;2023-02-19T15:41:52;11.40;57.80
16521;DHT22;8373;48.110;11.522;2023-02-19T15:44:32;11.40;57.70
16521;DHT22;8373;48.110;11.522;2023-02-19T15:47:07;11.40;57.30
16521;DHT22;8373;48.110;11.522;2023-02-19T15:49:41;11.30;57.00
16521;DHT22;8373;48.110;11.522;2023-02-19T15:52:18;11.20;57.00
16521;DHT22;8373;48.110;11.522;2023-02-19T15:54:52;11.20;57.10
16521;DHT22;8373;48.110;11.522;2023-02-19T15:57:23;11.20;57.00
16521;DHT22;8373;48.110;11.522;2023-02-19T15:59:56;11.10;56.80
16521;DHT22;8373;48.110;11.522;2023-02-19T16:02:26;11.10;57.30
16521;DHT22;8373;48.110;11.522;2023-02-19T16:04:53;11.20;57.10
16521;DHT22;8373;48.110;11.522;2023-02-19T16:07:24;11.10;56.80
16521;DHT22;8373;48.110;11.522;2023-02-19T16:10:11;11.10;57.00
16521;DHT22;8373;48.110;11.522;2023-02-19T16:12:42;11.10;57.20
16521;DHT22;8373;48.110;11.522;2023-02-19T16:15:13;11.10;57.20
16521;DHT22;8373;48.110;11.522;2023-02-19T16:17:41;11.00;57.30
16521;DHT22;8373;48.110;11.522;2023-02-19T16:20:18;11.00;57.50
16521;DHT22;8373;48.110;11.522;2023-02-19T16:22:48;10.90;57.70
16521;DHT22;8373;48.110;11.522;2023-02-19T16:25:25;10.90;57.90
16521;DHT22;8373;48.110;11.522;2023-02-19T16:27:53;10.90;57.80
16521;DHT22;8373;48.110;11.522;2023-02-19T16:30:30;10.70;57.90
16521;DHT22;8373;48.110;11.522;2023-02-19T16:33:21;10.80;58.40
16521;DHT22;8373;48.110;11.522;2023-02-19T16:35:56;10.90;58.40
16521;DHT22;8373;48.110;11.522;2023-02-19T16:38:25;10.90;58.30